sensor_id;sensor_type;location;lat;lon;timestamp;pressure;altitude;pressure_sealevel;temperature;humidity
31225;BME280;17847;31.524;74.366;2023-02-18T00:02:05;99004.91;;;15.19;84.08
31225;BME280;17847;31.524;74.366;2023-02-18T00:04:54;98999.19;;;15.15;84.15
31225;BME280;17847;31.524;74.366;2023-02-18T00:07:38;98997.53;;;15.14;84.17
31225;BME280;17847;31.524;74.366;2023-02-18T00:10:27;98998.59;;;15.13;83.81
31225;BME280;17847;31.524;74.366;2023-02-18T00:13:03;99003.25;;;15.18;84.02
31225;BME280;17847;31.524;74.366;2023-02-18T00:16:06;99009.03;;;15.15;83.82
31225;BME280;17847;31.524;74.366;2023-02-18T00:18:49;98999.00;;;15.10;83.85
31225;BME280;17847;31.524;74.366;2023-02-18T00:21:41;99010.09;;;15.07;84.05
31225;BME280;17847;31.524;74.366;2023-02-18T00:24:24;99004.16;;;15.05;84.67
31225;BME280;17847;31.524;74.366;2023-02-18T00:27:19;99009.09;;;15.08;84.42
31225;BME280;17847;31.524;74.366;2023-02-18T00:30:03;98999.06;;;15.04;84.42
31225;BME280;17847;31.524;74.366;2023-02-18T00:32:51;99000.72;;;14.98;84.18
31225;BME280;17847;31.524;74.366;2023-02-18T00:35:34;99002.94;;;15.01;84.42
31225;BME280;17847;31.524;74.366;2023-02-18T00:38:22;98994.53;;;15.04;84.58
31225;BME280;17847;31.524;74.366;2023-02-18T00:41:05;98994.53;;;15.04;84.23
31225;BME280;17847;31.524;74.366;2023-02-18T00:43:55;98999.06;;;15.04;84.60
31225;BME280;17847;31.524;74.366;2023-02-18T00:46:37;99000.28;;;15.01;84.34
31225;BME280;17847;31.524;74.366;2023-02-18T00:49:34;99000.75;;;14.92;83.91
31225;BME280;17847;31.524;74.366;2023-02-18T00:52:10;99009.38;;;14.87;84.21
31225;BME280;17847;31.524;74.366;2023-02-18T00:55:07;98998.94;;;14.86;84.17
31225;BME280;17847;31.524;74.366;2023-02-18T00:57:42;99001.22;;;14.82;84.37
31225;BME280;17847;31.524;74.366;2023-02-18T01:00:37;99007.75;;;14.86;84.59
31225;BME280;17847;31.524;74.366;2023-02-18T01:03:14;99009.41;;;14.80;84.14
31225;BME280;17847;31.524;74.366;2023-02-18T01:06:13;99015.59;;;14.74;84.43
31225;BME280;17847;31.524;74.366;2023-02-18T01:08:56;99020.72;;;14.76;84.48
31225;BME280;17847;31.524;74.366;2023-02-18T01:11:44;99032.63;;;14.73;84.18
31225;BME280;17847;31.524;74.366;2023-02-18T01:14:27;99034.06;;;14.69;84.52
31225;BME280;17847;31.524;74.366;2023-02-18T01:17:15;99034.47;;;14.73;84.66
31225;BME280;17847;31.524;74.366;2023-02-18T01:19:58;99040.19;;;14.76;84.52
31225;BME280;17847;31.524;74.366;2023-02-18T01:22:47;99044.72;;;14.76;84.15
31225;BME280;17847;31.524;74.366;2023-02-18T01:25:30;99044.31;;;14.72;84.54
31225;BME280;17847;31.524;74.366;2023-02-18T01:28:25;99050.28;;;14.68;84.31
31225;BME280;17847;31.524;74.366;2023-02-18T01:31:10;99046.59;;;14.69;84.54
31225;BME280;17847;31.524;74.366;2023-02-18T01:34:06;99064.44;;;14.68;84.59
31225;BME280;17847;31.524;74.366;2023-02-18T01:36:42;99058.28;;;14.68;84.40
31225;BME280;17847;31.524;74.366;2023-02-18T01:39:37;99067.09;;;14.68;84.50
31225;BME280;17847;31.524;74.366;2023-02-18T01:42:22;99076.94;;;14.68;84.62
31225;BME280;17847;31.524;74.366;2023-02-18T01:48:16;99079.63;;;14.68;84.78
31225;BME280;17847;31.524;74.366;2023-02-18T01:51:17;99089.66;;;14.66;84.68
31225;BME280;17847;31.524;74.366;2023-02-18T01:57:14;99093.75;;;14.68;85.11
31225;BME280;17847;31.524;74.366;2023-02-18T01:59:54;99105.03;;;14.77;84.69
31225;BME280;17847;31.524;74.366;2023-02-18T02:02:53;99101.53;;;14.76;84.85
31225;BME280;17847;31.524;74.366;2023-02-18T02:05:33;99114.84;;;14.76;84.81
31225;BME280;17847;31.524;74.366;2023-02-18T02:08:29;99124.06;;;14.74;84.82
31225;BME280;17847;31.524;74.366;2023-02-18T02:21:06;99135.91;;;15.04;83.87
31225;BME280;17847;31.524;74.366;2023-02-18T02:24:21;99136.06;;;15.09;83.91
31225;BME280;17847;31.524;74.366;2023-02-18T02:30:46;99152.28;;;15.21;83.33
31225;BME280;17847;31.524;74.366;2023-02-18T02:34:28;99159.41;;;15.27;83.08
31225;BME280;17847;31.524;74.366;2023-02-18T02:37:48;99151.00;;;15.30;83.16
31225;BME280;17847;31.524;74.366;2023-02-18T02:44:36;99163.22;;;15.57;83.12
31225;BME280;17847;31.524;74.366;2023-02-18T02:47:34;99162.53;;;15.75;82.79
31225;BME280;17847;31.524;74.366;2023-02-18T02:50:27;99164.69;;;15.91;82.18
31225;BME280;17847;31.524;74.366;2023-02-18T02:53:27;99172.13;;;16.14;82.17
31225;BME280;17847;31.524;74.366;2023-02-18T02:56:24;99182.88;;;16.57;80.48
31225;BME280;17847;31.524;74.366;2023-02-18T02:59:12;99188.38;;;16.87;79.03
31225;BME280;17847;31.524;74.366;2023-02-18T03:11:17;99221.50;;;17.83;76.75
31225;BME280;17847;31.524;74.366;2023-02-18T03:14:26;99220.47;;;18.14;75.86
31225;BME280;17847;31.524;74.366;2023-02-18T03:17:29;99219.75;;;18.60;75.14
31225;BME280;17847;31.524;74.366;2023-02-18T03:20:25;99215.38;;;18.89;74.08
31225;BME280;17847;31.524;74.366;2023-02-18T03:23:15;99222.94;;;19.04;71.76
31225;BME280;17847;31.524;74.366;2023-02-18T03:26:07;99221.03;;;19.39;70.92
31225;BME280;17847;31.524;74.366;2023-02-18T03:28:53;99218.97;;;19.81;71.94
31225;BME280;17847;31.524;74.366;2023-02-18T03:31:45;99228.44;;;20.00;69.06
31225;BME280;17847;31.524;74.366;2023-02-18T03:34:43;99229.22;;;20.41;68.81
31225;BME280;17847;31.524;74.366;2023-02-18T03:37:45;99233.06;;;20.95;68.06
31225;BME280;17847;31.524;74.366;2023-02-18T03:40:23;99234.94;;;21.28;67.00
31225;BME280;17847;31.524;74.366;2023-02-18T03:43:18;99234.28;;;21.64;65.67
31225;BME280;17847;31.524;74.366;2023-02-18T03:46:00;99234.41;;;22.18;62.78
31225;BME280;17847;31.524;74.366;2023-02-18T03:48:50;99237.22;;;22.60;60.56
31225;BME280;17847;31.524;74.366;2023-02-18T03:51:32;99243.91;;;22.79;60.08
31225;BME280;17847;31.524;74.366;2023-02-18T03:54:21;99231.50;;;22.83;59.62
31225;BME280;17847;31.524;74.366;2023-02-18T03:57:03;99240.41;;;23.72;55.93
31225;BME280;17847;31.524;74.366;2023-02-18T03:59:52;99242.31;;;23.67;55.71
31225;BME280;17847;31.524;74.366;2023-02-18T04:02:40;99246.31;;;23.59;54.72
31225;BME280;17847;31.524;74.366;2023-02-18T04:05:29;99249.53;;;23.56;55.73
31225;BME280;17847;31.524;74.366;2023-02-18T04:08:11;99252.03;;;23.73;55.37
31225;BME280;17847;31.524;74.366;2023-02-18T04:11:01;99257.50;;;23.83;55.00
31225;BME280;17847;31.524;74.366;2023-02-18T04:13:43;99252.44;;;24.02;54.07
31225;BME280;17847;31.524;74.366;2023-02-18T04:16:32;99253.06;;;24.39;53.59
31225;BME280;17847;31.524;74.366;2023-02-18T04:19:14;99258.09;;;24.00;56.37
31225;BME280;17847;31.524;74.366;2023-02-18T04:22:03;99249.47;;;24.13;55.21
31225;BME280;17847;31.524;74.366;2023-02-18T04:24:45;99253.88;;;24.35;54.43
31225;BME280;17847;31.524;74.366;2023-02-18T04:27:33;99250.50;;;23.92;52.80
31225;BME280;17847;31.524;74.366;2023-02-18T04:30:10;99251.16;;;24.40;52.59
31225;BME280;17847;31.524;74.366;2023-02-18T04:33:06;99247.16;;;24.78;53.11
31225;BME280;17847;31.524;74.366;2023-02-18T04:35:48;99239.84;;;25.09;51.28
31225;BME280;17847;31.524;74.366;2023-02-18T04:38:37;99242.22;;;25.35;49.12
31225;BME280;17847;31.524;74.366;2023-02-18T04:41:19;99234.34;;;25.24;49.62
31225;BME280;17847;31.524;74.366;2023-02-18T04:44:07;99246.84;;;25.15;52.34
31225;BME280;17847;31.524;74.366;2023-02-18T04:46:50;99234.69;;;25.91;46.48
31225;BME280;17847;31.524;74.366;2023-02-18T04:49:46;99235.25;;;25.88;50.46
31225;BME280;17847;31.524;74.366;2023-02-18T04:52:35;99245.34;;;25.78;50.06
31225;BME280;17847;31.524;74.366;2023-02-18T04:55:30;99243.63;;;25.13;50.14
31225;BME280;17847;31.524;74.366;2023-02-18T04:58:12;99243.88;;;25.01;49.69
31225;BME280;17847;31.524;74.366;2023-02-18T05:01:01;99238.84;;;25.69;49.82
31225;BME280;17847;31.524;74.366;2023-02-18T05:03:38;99239.03;;;25.92;46.15
31225;BME280;17847;31.524;74.366;2023-02-18T05:06:33;99233.94;;;26.30;47.54
31225;BME280;17847;31.524;74.366;2023-02-18T05:09:09;99225.44;;;26.75;45.60
31225;BME280;17847;31.524;74.366;2023-02-18T05:12:06;99224.31;;;26.81;44.81
31225;BME280;17847;31.524;74.366;2023-02-18T05:14:42;99220.84;;;27.05;43.90
31225;BME280;17847;31.524;74.366;2023-02-18T05:17:38;99212.44;;;26.72;42.63
31225;BME280;17847;31.524;74.366;2023-02-18T05:20:20;99222.47;;;26.38;45.89
31225;BME280;17847;31.524;74.366;2023-02-18T05:23:08;99223.16;;;27.40;45.08
31225;BME280;17847;31.524;74.366;2023-02-18T05:25:51;99218.47;;;27.22;42.26
31225;BME280;17847;31.524;74.366;2023-02-18T05:28:39;99215.91;;;27.59;42.98
31225;BME280;17847;31.524;74.366;2023-02-18T05:31:22;99218.34;;;27.61;42.86
31225;BME280;17847;31.524;74.366;2023-02-18T05:34:11;99220.75;;;28.05;41.92
31225;BME280;17847;31.524;74.366;2023-02-18T05:36:54;99220.88;;;27.95;39.11
31225;BME280;17847;31.524;74.366;2023-02-18T05:39:43;99220.50;;;27.35;39.73
31225;BME280;17847;31.524;74.366;2023-02-18T05:42:25;99215.72;;;27.75;40.11
31225;BME280;17847;31.524;74.366;2023-02-18T05:45:13;99212.31;;;27.64;39.55
31225;BME280;17847;31.524;74.366;2023-02-18T05:47:56;99203.50;;;28.15;41.30
31225;BME280;17847;31.524;74.366;2023-02-18T05:50:44;99211.72;;;28.28;41.11
31225;BME280;17847;31.524;74.366;2023-02-18T05:53:34;99202.47;;;28.62;36.32
31225;BME280;17847;31.524;74.366;2023-02-18T05:56:29;99198.75;;;27.83;37.47
31225;BME280;17847;31.524;74.366;2023-02-18T05:59:05;99195.19;;;28.76;37.54
31225;BME280;17847;31.524;74.366;2023-02-18T06:02:01;99197.41;;;28.87;39.21
31225;BME280;17847;31.524;74.366;2023-02-18T06:04:43;99189.94;;;28.93;36.26
31225;BME280;17847;31.524;74.366;2023-02-18T06:07:33;99194.66;;;28.55;38.12
31225;BME280;17847;31.524;74.366;2023-02-18T06:10:15;99188.13;;;28.37;37.38
31225;BME280;17847;31.524;74.366;2023-02-18T06:13:05;99192.78;;;28.69;36.95
31225;BME280;17847;31.524;74.366;2023-02-18T06:15:41;99197.22;;;28.97;36.19
31225;BME280;17847;31.524;74.366;2023-02-18T06:18:37;99194.63;;;28.04;36.02
31225;BME280;17847;31.524;74.366;2023-02-18T06:21:12;99189.75;;;28.38;36.92
31225;BME280;17847;31.524;74.366;2023-02-18T06:24:07;99182.47;;;28.85;36.24
31225;BME280;17847;31.524;74.366;2023-02-18T06:26:50;99184.44;;;28.15;36.96
31225;BME280;17847;31.524;74.366;2023-02-18T06:29:39;99172.84;;;28.04;35.22
31225;BME280;17847;31.524;74.366;2023-02-18T06:32:15;99180.13;;;27.90;35.38
31225;BME280;17847;31.524;74.366;2023-02-18T06:35:10;99174.31;;;28.34;36.56
31225;BME280;17847;31.524;74.366;2023-02-18T06:37:52;99172.06;;;28.68;34.94
31225;BME280;17847;31.524;74.366;2023-02-18T06:40:41;99164.47;;;28.51;35.70
31225;BME280;17847;31.524;74.366;2023-02-18T06:43:23;99159.28;;;27.99;33.23
31225;BME280;17847;31.524;74.366;2023-02-18T06:46:12;99156.84;;;28.35;35.90
31225;BME280;17847;31.524;74.366;2023-02-18T06:48:55;99151.81;;;28.42;37.28
31225;BME280;17847;31.524;74.366;2023-02-18T06:51:44;99145.56;;;28.74;37.26
31225;BME280;17847;31.524;74.366;2023-02-18T06:54:23;99148.44;;;28.96;38.30
31225;BME280;17847;31.524;74.366;2023-02-18T06:57:18;99146.69;;;28.73;36.73
31225;BME280;17847;31.524;74.366;2023-02-18T06:59:54;99141.56;;;28.52;35.56
31225;BME280;17847;31.524;74.366;2023-02-18T07:02:50;99134.25;;;28.34;33.74
31225;BME280;17847;31.524;74.366;2023-02-18T07:05:32;99132.44;;;28.43;36.09
31225;BME280;17847;31.524;74.366;2023-02-18T07:08:21;99131.19;;;28.68;36.46
31225;BME280;17847;31.524;74.366;2023-02-18T07:10:57;99128.13;;;28.75;36.06
31225;BME280;17847;31.524;74.366;2023-02-18T07:13:53;99126.19;;;28.75;35.05
31225;BME280;17847;31.524;74.366;2023-02-18T07:16:35;99112.47;;;28.80;34.31
31225;BME280;17847;31.524;74.366;2023-02-18T07:19:24;99116.09;;;28.76;34.52
31225;BME280;17847;31.524;74.366;2023-02-18T07:22:06;99097.59;;;28.73;33.64
31225;BME280;17847;31.524;74.366;2023-02-18T07:24:55;99102.25;;;28.86;35.30
31225;BME280;17847;31.524;74.366;2023-02-18T07:27:37;99097.09;;;28.71;32.50
31225;BME280;17847;31.524;74.366;2023-02-18T07:30:27;99088.50;;;28.77;32.12
31225;BME280;17847;31.524;74.366;2023-02-18T07:33:09;99079.66;;;28.85;33.40
31225;BME280;17847;31.524;74.366;2023-02-18T07:35:59;99083.22;;;28.53;32.54
31225;BME280;17847;31.524;74.366;2023-02-18T07:38:43;99070.47;;;28.35;33.36
31225;BME280;17847;31.524;74.366;2023-02-18T07:41:33;99089.53;;;28.35;32.93
31225;BME280;17847;31.524;74.366;2023-02-18T07:44:15;99075.75;;;28.45;34.82
31225;BME280;17847;31.524;74.366;2023-02-18T07:47:06;99070.19;;;28.50;33.69
31225;BME280;17847;31.524;74.366;2023-02-18T07:49:50;99069.69;;;28.48;34.04
31225;BME280;17847;31.524;74.366;2023-02-18T07:52:39;99061.81;;;28.47;34.83
31225;BME280;17847;31.524;74.366;2023-02-18T07:55:27;99055.25;;;28.48;34.50
31225;BME280;17847;31.524;74.366;2023-02-18T07:58:34;99047.88;;;28.48;36.78
31225;BME280;17847;31.524;74.366;2023-02-18T08:01:22;99052.91;;;28.55;37.38
31225;BME280;17847;31.524;74.366;2023-02-18T08:04:06;99048.25;;;28.42;38.07
31225;BME280;17847;31.524;74.366;2023-02-18T08:06:55;99045.25;;;28.43;37.03
31225;BME280;17847;31.524;74.366;2023-02-18T08:09:38;99025.53;;;28.33;36.44
31225;BME280;17847;31.524;74.366;2023-02-18T08:12:26;99018.63;;;28.40;37.28
31225;BME280;17847;31.524;74.366;2023-02-18T08:15:09;99015.88;;;28.27;36.33
31225;BME280;17847;31.524;74.366;2023-02-18T08:17:58;99000.41;;;28.22;36.40
31225;BME280;17847;31.524;74.366;2023-02-18T08:20:41;99002.53;;;28.25;36.21
31225;BME280;17847;31.524;74.366;2023-02-18T08:23:31;98993.16;;;28.31;36.92
31225;BME280;17847;31.524;74.366;2023-02-18T08:26:13;98987.63;;;28.36;35.33
31225;BME280;17847;31.524;74.366;2023-02-18T08:29:03;98978.13;;;28.34;36.45
31225;BME280;17847;31.524;74.366;2023-02-18T08:31:45;98972.69;;;28.34;35.08
31225;BME280;17847;31.524;74.366;2023-02-18T08:34:42;98972.19;;;28.32;36.54
31225;BME280;17847;31.524;74.366;2023-02-18T08:37:24;98974.03;;;28.04;35.46
31225;BME280;17847;31.524;74.366;2023-02-18T08:40:33;98964.38;;;28.11;35.30
31225;BME280;17847;31.524;74.366;2023-02-18T08:43:16;98960.16;;;28.19;35.22
31225;BME280;17847;31.524;74.366;2023-02-18T08:46:05;98952.53;;;28.02;34.25
31225;BME280;17847;31.524;74.366;2023-02-18T08:48:51;98955.41;;;28.11;36.01
31225;BME280;17847;31.524;74.366;2023-02-18T08:51:39;98944.28;;;28.07;34.58
31225;BME280;17847;31.524;74.366;2023-02-18T08:54:29;98944.28;;;28.07;34.33
31225;BME280;17847;31.524;74.366;2023-02-18T08:57:26;98941.53;;;28.07;35.57
31225;BME280;17847;31.524;74.366;2023-02-18T09:00:10;98942.78;;;28.01;34.95
31225;BME280;17847;31.524;74.366;2023-02-18T09:02:58;98936.81;;;27.99;34.60
31225;BME280;17847;31.524;74.366;2023-02-18T09:05:41;98932.78;;;27.97;37.38
31225;BME280;17847;31.524;74.366;2023-02-18T09:08:30;98932.78;;;27.97;36.07
31225;BME280;17847;31.524;74.366;2023-02-18T09:11:12;98920.63;;;27.89;35.53
31225;BME280;17847;31.524;74.366;2023-02-18T09:14:09;98918.81;;;27.85;35.07
31225;BME280;17847;31.524;74.366;2023-02-18T09:16:51;98921.41;;;27.76;35.26
31225;BME280;17847;31.524;74.366;2023-02-18T09:19:41;98922.97;;;27.50;37.33
31225;BME280;17847;31.524;74.366;2023-02-18T09:22:23;98917.53;;;27.50;36.80
31225;BME280;17847;31.524;74.366;2023-02-18T09:25:14;98911.47;;;27.53;37.64
31225;BME280;17847;31.524;74.366;2023-02-18T09:27:56;98912.91;;;27.50;38.38
31225;BME280;17847;31.524;74.366;2023-02-18T09:30:45;98904.16;;;27.35;39.63
31225;BME280;17847;31.524;74.366;2023-02-18T09:33:27;98901.38;;;27.02;40.76
31225;BME280;17847;31.524;74.366;2023-02-18T09:36:17;98909.50;;;26.83;41.17
31225;BME280;17847;31.524;74.366;2023-02-18T09:39:01;98900.03;;;26.81;42.30
31225;BME280;17847;31.524;74.366;2023-02-18T09:41:57;98890.44;;;26.89;40.27
31225;BME280;17847;31.524;74.366;2023-02-18T09:44:48;98895.88;;;26.89;40.90
31225;BME280;17847;31.524;74.366;2023-02-18T09:47:47;98900.59;;;26.78;41.32
31225;BME280;17847;31.524;74.366;2023-02-18T09:50:32;98902.97;;;26.66;42.29
31225;BME280;17847;31.524;74.366;2023-02-18T09:53:22;98897.53;;;26.66;41.88
31225;BME280;17847;31.524;74.366;2023-02-18T09:56:26;98889.38;;;26.66;42.20
31225;BME280;17847;31.524;74.366;2023-02-18T09:59:05;98882.84;;;26.67;40.98
31225;BME280;17847;31.524;74.366;2023-02-18T10:02:10;98882.63;;;26.63;41.31
31225;BME280;17847;31.524;74.366;2023-02-18T10:04:51;98873.34;;;26.64;40.83
31225;BME280;17847;31.524;74.366;2023-02-18T10:07:48;98871.16;;;26.66;40.69
31225;BME280;17847;31.524;74.366;2023-02-18T10:10:44;98875.91;;;26.56;41.65
31225;BME280;17847;31.524;74.366;2023-02-18T10:13:33;98870.16;;;26.38;43.81
31225;BME280;17847;31.524;74.366;2023-02-18T10:16:17;98875.25;;;26.45;45.97
31225;BME280;17847;31.524;74.366;2023-02-18T10:19:31;98874.59;;;26.53;44.82
31225;BME280;17847;31.524;74.366;2023-02-18T10:22:18;98869.22;;;26.48;44.24
31225;BME280;17847;31.524;74.366;2023-02-18T10:25:08;98865.84;;;26.56;43.86
31225;BME280;17847;31.524;74.366;2023-02-18T10:27:47;98867.53;;;26.52;44.60
31225;BME280;17847;31.524;74.366;2023-02-18T10:30:53;98868.19;;;26.44;43.89
31225;BME280;17847;31.524;74.366;2023-02-18T10:34:00;98869.59;;;26.42;45.19
31225;BME280;17847;31.524;74.366;2023-02-18T10:37:36;98870.97;;;26.39;44.11
31225;BME280;17847;31.524;74.366;2023-02-18T10:40:33;98868.56;;;26.38;44.38
31225;BME280;17847;31.524;74.366;2023-02-18T10:52:42;98858.44;;;26.24;45.20
31225;BME280;17847;31.524;74.366;2023-02-18T10:55:41;98856.22;;;26.26;44.75
31225;BME280;17847;31.524;74.366;2023-02-18T10:58:45;98856.00;;;26.23;45.16
31225;BME280;17847;31.524;74.366;2023-02-18T11:01:34;98852.69;;;26.26;45.28
31225;BME280;17847;31.524;74.366;2023-02-18T11:04:20;98849.47;;;26.24;45.24
31225;BME280;17847;31.524;74.366;2023-02-18T11:07:19;98846.50;;;26.20;45.20
31225;BME280;17847;31.524;74.366;2023-02-18T11:10:15;98848.75;;;26.13;45.76
31225;BME280;17847;31.524;74.366;2023-02-18T11:13:06;98847.75;;;26.04;45.88
31225;BME280;17847;31.524;74.366;2023-02-18T11:16:04;98842.16;;;25.96;46.02
31225;BME280;17847;31.524;74.366;2023-02-18T11:19:00;98836.50;;;25.92;46.62
31225;BME280;17847;31.524;74.366;2023-02-18T11:21:38;98837.16;;;25.84;46.58
31225;BME280;17847;31.524;74.366;2023-02-18T11:24:37;98840.78;;;25.74;47.01
31225;BME280;17847;31.524;74.366;2023-02-18T11:27:23;98845.16;;;25.70;47.70
31225;BME280;17847;31.524;74.366;2023-02-18T11:30:35;98838.69;;;25.66;47.58
31225;BME280;17847;31.524;74.366;2023-02-18T11:36:32;98845.03;;;25.52;49.15
31225;BME280;17847;31.524;74.366;2023-02-18T11:39:24;98846.47;;;25.44;48.16
31225;BME280;17847;31.524;74.366;2023-02-18T11:42:17;98843.38;;;25.27;48.56
31225;BME280;17847;31.524;74.366;2023-02-18T11:45:01;98841.25;;;25.19;49.25
31225;BME280;17847;31.524;74.366;2023-02-18T11:48:02;98836.16;;;25.17;48.39
31225;BME280;17847;31.524;74.366;2023-02-18T11:50:52;98836.41;;;25.16;48.40
31225;BME280;17847;31.524;74.366;2023-02-18T11:53:55;98847.28;;;25.11;49.05
31225;BME280;17847;31.524;74.366;2023-02-18T11:56:40;98849.53;;;25.03;49.66
31225;BME280;17847;31.524;74.366;2023-02-18T11:59:38;98840.38;;;24.94;48.75
31225;BME280;17847;31.524;74.366;2023-02-18T12:02:41;98846.91;;;24.83;50.52
31225;BME280;17847;31.524;74.366;2023-02-18T12:05:30;98847.56;;;24.65;50.29
31225;BME280;17847;31.524;74.366;2023-02-18T12:08:21;98854.16;;;24.54;51.36
31225;BME280;17847;31.524;74.366;2023-02-18T12:11:16;98854.78;;;24.41;51.86
31225;BME280;17847;31.524;74.366;2023-02-18T12:14:02;98866.19;;;24.28;53.28
31225;BME280;17847;31.524;74.366;2023-02-18T12:26:29;98864.16;;;23.84;55.45
31225;BME280;17847;31.524;74.366;2023-02-18T12:29:53;98864.69;;;23.81;51.81
31225;BME280;17847;31.524;74.366;2023-02-18T12:48:03;98872.84;;;23.36;55.36
31225;BME280;17847;31.524;74.366;2023-02-18T13:06:13;98883.09;;;22.83;61.55
31225;BME280;17847;31.524;74.366;2023-02-18T13:09:10;98898.38;;;22.62;62.24
31225;BME280;17847;31.524;74.366;2023-02-18T13:12:20;98902.38;;;22.45;62.86
31225;BME280;17847;31.524;74.366;2023-02-18T13:18:03;98900.16;;;22.31;64.04
31225;BME280;17847;31.524;74.366;2023-02-18T13:21:03;98901.47;;;22.19;64.46
31225;BME280;17847;31.524;74.366;2023-02-18T13:24:00;98901.41;;;22.04;65.40
31225;BME280;17847;31.524;74.366;2023-02-18T13:26:46;98915.88;;;21.92;66.27
31225;BME280;17847;31.524;74.366;2023-02-18T13:32:29;98922.50;;;21.80;67.21
31225;BME280;17847;31.524;74.366;2023-02-18T13:35:27;98924.31;;;21.69;67.32
31225;BME280;17847;31.524;74.366;2023-02-18T13:41:19;98916.09;;;21.49;67.51
31225;BME280;17847;31.524;74.366;2023-02-18T13:47:07;98916.00;;;21.39;67.02
31225;BME280;17847;31.524;74.366;2023-02-18T13:49:51;98924.38;;;21.37;67.08
31225;BME280;17847;31.524;74.366;2023-02-18T13:52:41;98930.25;;;21.34;67.57
31225;BME280;17847;31.524;74.366;2023-02-18T13:56:00;98928.66;;;21.38;67.24
31225;BME280;17847;31.524;74.366;2023-02-18T13:59:07;98937.75;;;21.27;67.96
31225;BME280;17847;31.524;74.366;2023-02-18T14:01:52;98942.41;;;21.37;68.58
31225;BME280;17847;31.524;74.366;2023-02-18T14:10:34;98945.19;;;21.15;69.20
31225;BME280;17847;31.524;74.366;2023-02-18T14:13:47;98944.28;;;21.10;69.05
31225;BME280;17847;31.524;74.366;2023-02-18T14:22:51;98960.84;;;20.96;69.36
31225;BME280;17847;31.524;74.366;2023-02-18T14:25:38;98963.78;;;20.95;69.96
31225;BME280;17847;31.524;74.366;2023-02-18T14:28:37;98962.91;;;20.89;69.63
31225;BME280;17847;31.524;74.366;2023-02-18T14:31:27;98962.09;;;20.89;69.42
31225;BME280;17847;31.524;74.366;2023-02-18T14:37:51;98981.38;;;20.81;70.11
31225;BME280;17847;31.524;74.366;2023-02-18T14:50:02;98995.69;;;21.08;69.67
31225;BME280;17847;31.524;74.366;2023-02-18T14:52:56;98995.28;;;20.94;69.61
31225;BME280;17847;31.524;74.366;2023-02-18T14:55:53;98997.78;;;21.01;69.01
31225;BME280;17847;31.524;74.366;2023-02-18T14:58:57;98992.78;;;20.88;69.58
31225;BME280;17847;31.524;74.366;2023-02-18T15:01:45;98992.41;;;20.79;70.92
31225;BME280;17847;31.524;74.366;2023-02-18T15:04:33;99002.22;;;20.69;70.61
31225;BME280;17847;31.524;74.366;2023-02-18T15:07:20;98996.78;;;20.63;70.56
31225;BME280;17847;31.524;74.366;2023-02-18T15:10:14;98991.66;;;20.62;71.01
31225;BME280;17847;31.524;74.366;2023-02-18T15:12:56;98994.28;;;20.57;70.73
31225;BME280;17847;31.524;74.366;2023-02-18T15:15:50;99006.88;;;20.51;70.84
31225;BME280;17847;31.524;74.366;2023-02-18T15:18:36;99001.41;;;20.46;71.14
31225;BME280;17847;31.524;74.366;2023-02-18T15:21:39;98994.31;;;20.40;71.41
31225;BME280;17847;31.524;74.366;2023-02-18T15:24:30;99003.31;;;20.29;71.90
31225;BME280;17847;31.524;74.366;2023-02-18T15:27:22;99005.09;;;20.24;72.01
31225;BME280;17847;31.524;74.366;2023-02-18T15:33:15;99003.34;;;20.12;72.44
31225;BME280;17847;31.524;74.366;2023-02-18T15:36:04;99006.75;;;20.08;72.56
31225;BME280;17847;31.524;74.366;2023-02-18T15:38:54;99013.19;;;20.07;72.61
31225;BME280;17847;31.524;74.366;2023-02-18T15:41:37;99015.25;;;20.00;72.49
31225;BME280;17847;31.524;74.366;2023-02-18T15:44:29;99020.78;;;19.93;72.76
31225;BME280;17847;31.524;74.366;2023-02-18T15:47:13;99024.38;;;19.99;73.08
31225;BME280;17847;31.524;74.366;2023-02-18T15:50:03;99021.81;;;19.92;73.16
31225;BME280;17847;31.524;74.366;2023-02-18T15:52:47;99039.59;;;20.10;72.68
31225;BME280;17847;31.524;74.366;2023-02-18T15:55:40;99041.31;;;19.99;72.35
31225;BME280;17847;31.524;74.366;2023-02-18T15:58:37;99047.34;;;19.90;72.93
31225;BME280;17847;31.524;74.366;2023-02-18T16:01:28;99044.56;;;19.85;73.52
31225;BME280;17847;31.524;74.366;2023-02-18T16:04:17;99048.06;;;19.85;73.79
31225;BME280;17847;31.524;74.366;2023-02-18T16:07:15;99053.25;;;19.75;73.70
31225;BME280;17847;31.524;74.366;2023-02-18T16:10:23;99039.75;;;19.70;74.22
31225;BME280;17847;31.524;74.366;2023-02-18T16:13:13;99033.00;;;19.67;74.23
31225;BME280;17847;31.524;74.366;2023-02-18T16:16:05;99044.78;;;19.66;74.33
31225;BME280;17847;31.524;74.366;2023-02-18T16:18:43;99043.16;;;19.65;74.33
31225;BME280;17847;31.524;74.366;2023-02-18T16:21:43;99054.50;;;19.67;74.72
31225;BME280;17847;31.524;74.366;2023-02-18T16:24:28;99059.53;;;19.64;74.79
31225;BME280;17847;31.524;74.366;2023-02-18T16:27:31;99053.25;;;19.58;75.01
31225;BME280;17847;31.524;74.366;2023-02-18T16:30:20;99048.94;;;19.57;74.66
31225;BME280;17847;31.524;74.366;2023-02-18T16:33:10;99048.09;;;19.57;74.91
31225;BME280;17847;31.524;74.366;2023-02-18T16:35:53;99048.38;;;19.55;75.19
31225;BME280;17847;31.524;74.366;2023-02-18T16:38:44;99051.63;;;19.57;74.97
31225;BME280;17847;31.524;74.366;2023-02-18T16:41:27;99051.06;;;19.55;75.09
31225;BME280;17847;31.524;74.366;2023-02-18T16:44:18;99062.84;;;19.54;75.26
31225;BME280;17847;31.524;74.366;2023-02-18T16:47:01;99076.47;;;19.64;75.45
31225;BME280;17847;31.524;74.366;2023-02-18T16:49:50;99083.53;;;19.54;75.15
31225;BME280;17847;31.524;74.366;2023-02-18T16:52:33;99080.88;;;19.42;75.50
31225;BME280;17847;31.524;74.366;2023-02-18T16:55:26;99078.09;;;19.37;74.98